sensor_id;sensor_type;location;lat;lon;timestamp;pressure;altitude;pressure_sealevel;temperature;humidity
70445;BME280;57902;49.638;11.070;2022-09-28T00:01:50;96702.56;;;7.65;92.36
70445;BME280;57902;49.638;11.070;2022-09-28T00:04:17;96693.28;;;7.62;93.38
70445;BME280;57902;49.638;11.070;2022-09-28T00:06:44;96698.50;;;7.61;92.63
70445;BME280;57902;49.638;11.070;2022-09-28T00:09:10;96699.38;;;7.60;93.65
70445;BME280;57902;49.638;11.070;2022-09-28T00:11:40;96684.00;;;7.60;93.05
70445;BME280;57902;49.638;11.070;2022-09-28T00:14:09;96679.63;;;7.62;92.25
70445;BME280;57902;49.638;11.070;2022-09-28T00:16:43;96673.53;;;7.64;91.61
70445;BME280;57902;49.638;11.070;2022-09-28T00:19:13;96675.56;;;7.58;92.56
70445;BME280;57902;49.638;11.070;2022-09-28T00:21:40;96668.75;;;7.57;92.93
70445;BME280;57902;49.638;11.070;2022-09-28T00:24:13;96662.78;;;7.56;92.61
70445;BME280;57902;49.638;11.070;2022-09-28T00:26:50;96659.25;;;7.59;92.29
70445;BME280;57902;49.638;11.070;2022-09-28T00:29:25;96644.88;;;7.54;93.24
70445;BME280;57902;49.638;11.070;2022-09-28T00:31:54;96651.81;;;7.52;93.87
70445;BME280;57902;49.638;11.070;2022-09-28T00:34:26;96636.31;;;7.56;92.52
70445;BME280;57902;49.638;11.070;2022-09-28T00:36:52;96632.13;;;7.53;93.25
70445;BME280;57902;49.638;11.070;2022-09-28T00:39:22;96627.84;;;7.53;92.51
70445;BME280;57902;49.638;11.070;2022-09-28T00:41:52;96623.56;;;7.54;92.41
70445;BME280;57902;49.638;11.070;2022-09-28T00:47:12;96611.91;;;7.47;93.13
70445;BME280;57902;49.638;11.070;2022-09-28T00:49:50;96613.63;;;7.46;93.70
70445;BME280;57902;49.638;11.070;2022-09-28T00:52:30;96602.66;;;7.43;93.55
70445;BME280;57902;49.638;11.070;2022-09-28T00:55:19;96603.66;;;7.40;93.99
70445;BME280;57902;49.638;11.070;2022-09-28T00:57:57;96590.69;;;7.43;93.24
70445;BME280;57902;49.638;11.070;2022-09-28T01:00:26;96587.63;;;7.35;94.11
70445;BME280;57902;49.638;11.070;2022-09-28T01:02:52;96594.44;;;7.36;94.47
70445;BME280;57902;49.638;11.070;2022-09-28T01:05:19;96589.38;;;7.34;93.91
70445;BME280;57902;49.638;11.070;2022-09-28T01:07:58;96589.31;;;7.36;94.06
70445;BME280;57902;49.638;11.070;2022-09-28T01:10:28;96584.88;;;7.40;93.64
70445;BME280;57902;49.638;11.070;2022-09-28T01:12:57;96570.47;;;7.37;93.91
70445;BME280;57902;49.638;11.070;2022-09-28T01:15:37;96568.88;;;7.34;94.59
70445;BME280;57902;49.638;11.070;2022-09-28T01:18:16;96564.56;;;7.35;94.43
70445;BME280;57902;49.638;11.070;2022-09-28T01:21:03;96565.34;;;7.37;94.55
70445;BME280;57902;49.638;11.070;2022-09-28T01:26:45;96541.34;;;7.38;94.46
70445;BME280;57902;49.638;11.070;2022-09-28T01:29:17;96536.88;;;7.43;93.50
70445;BME280;57902;49.638;11.070;2022-09-28T01:31:51;96544.84;;;7.37;94.15
70445;BME280;57902;49.638;11.070;2022-09-28T01:34:29;96532.56;;;7.44;93.33
70445;BME280;57902;49.638;11.070;2022-09-28T01:37:03;96529.47;;;7.37;94.43
70445;BME280;57902;49.638;11.070;2022-09-28T01:39:36;96536.09;;;7.41;93.67
70445;BME280;57902;49.638;11.070;2022-09-28T01:42:11;96519.81;;;7.42;93.89
70445;BME280;57902;49.638;11.070;2022-09-28T01:44:43;96507.97;;;7.40;93.93
70445;BME280;57902;49.638;11.070;2022-09-28T01:47:14;96496.66;;;7.44;93.68
70445;BME280;57902;49.638;11.070;2022-09-28T01:49:46;96491.81;;;7.38;94.87
70445;BME280;57902;49.638;11.070;2022-09-28T01:52:27;96498.06;;;7.32;96.20
70445;BME280;57902;49.638;11.070;2022-09-28T01:55:22;96497.78;;;7.38;95.34
70445;BME280;57902;49.638;11.070;2022-09-28T01:58:00;96489.47;;;7.33;96.95
70445;BME280;57902;49.638;11.070;2022-09-28T02:00:29;96481.78;;;7.33;96.26
70445;BME280;57902;49.638;11.070;2022-09-28T02:03:09;96483.44;;;7.34;96.55
70445;BME280;57902;49.638;11.070;2022-09-28T02:05:39;96474.09;;;7.33;96.98
70445;BME280;57902;49.638;11.070;2022-09-28T02:08:22;96468.19;;;7.31;98.36
70445;BME280;57902;49.638;11.070;2022-09-28T02:10:59;96475.88;;;7.31;97.79
70445;BME280;57902;49.638;11.070;2022-09-28T02:13:32;96463.00;;;7.32;98.42
70445;BME280;57902;49.638;11.070;2022-09-28T02:16:19;96462.91;;;7.34;98.36
70445;BME280;57902;49.638;11.070;2022-09-28T02:18:47;96457.13;;;7.30;99.23
70445;BME280;57902;49.638;11.070;2022-09-28T02:21:32;96456.16;;;7.33;98.39
70445;BME280;57902;49.638;11.070;2022-09-28T02:24:08;96446.06;;;7.30;99.09
70445;BME280;57902;49.638;11.070;2022-09-28T02:26:38;96447.69;;;7.31;98.74
70445;BME280;57902;49.638;11.070;2022-09-28T02:29:06;96446.13;;;7.28;98.69
70445;BME280;57902;49.638;11.070;2022-09-28T02:31:34;96441.25;;;7.22;100.00
70445;BME280;57902;49.638;11.070;2022-09-28T02:34:00;96444.66;;;7.23;100.00
70445;BME280;57902;49.638;11.070;2022-09-28T02:36:27;96443.88;;;7.21;100.00
70445;BME280;57902;49.638;11.070;2022-09-28T02:38:55;96439.69;;;7.20;100.00
70445;BME280;57902;49.638;11.070;2022-09-28T02:41:30;96442.25;;;7.20;100.00
70445;BME280;57902;49.638;11.070;2022-09-28T02:47:04;96432.66;;;7.23;100.00
70445;BME280;57902;49.638;11.070;2022-09-28T02:49:53;96433.41;;;7.25;100.00
70445;BME280;57902;49.638;11.070;2022-09-28T02:58:13;96422.50;;;7.22;100.00
70445;BME280;57902;49.638;11.070;2022-09-28T03:00:49;96415.44;;;7.27;100.00
70445;BME280;57902;49.638;11.070;2022-09-28T03:03:23;96411.28;;;7.24;100.00
70445;BME280;57902;49.638;11.070;2022-09-28T03:06:18;96410.16;;;7.30;100.00
70445;BME280;57902;49.638;11.070;2022-09-28T03:08:53;96402.75;;;7.24;100.00
70445;BME280;57902;49.638;11.070;2022-09-28T03:11:27;96405.38;;;7.22;100.00
70445;BME280;57902;49.638;11.070;2022-09-28T03:13:56;96398.69;;;7.20;100.00
70445;BME280;57902;49.638;11.070;2022-09-28T03:16:23;96396.13;;;7.20;100.00
70445;BME280;57902;49.638;11.070;2022-09-28T03:18:50;96396.25;;;7.16;100.00
70445;BME280;57902;49.638;11.070;2022-09-28T03:21:16;96392.09;;;7.14;100.00
70445;BME280;57902;49.638;11.070;2022-09-28T03:23:43;96386.13;;;7.13;100.00
70445;BME280;57902;49.638;11.070;2022-09-28T03:26:10;96380.19;;;7.13;100.00
70445;BME280;57902;49.638;11.070;2022-09-28T03:28:37;96368.34;;;7.10;100.00
70445;BME280;57902;49.638;11.070;2022-09-28T03:31:04;96363.84;;;7.15;100.00
70445;BME280;57902;49.638;11.070;2022-09-28T03:33:31;96352.69;;;7.16;100.00
70445;BME280;57902;49.638;11.070;2022-09-28T03:35:57;96336.31;;;7.19;100.00
70445;BME280;57902;49.638;11.070;2022-09-28T03:38:24;96335.66;;;7.15;100.00
70445;BME280;57902;49.638;11.070;2022-09-28T03:40:58;96335.66;;;7.15;100.00
70445;BME280;57902;49.638;11.070;2022-09-28T03:43:26;96326.44;;;7.11;100.00
70445;BME280;57902;49.638;11.070;2022-09-28T03:46:00;96325.41;;;7.15;100.00
70445;BME280;57902;49.638;11.070;2022-09-28T03:48:30;96316.13;;;7.13;100.00
70445;BME280;57902;49.638;11.070;2022-09-28T03:51:00;96321.81;;;7.20;100.00
70445;BME280;57902;49.638;11.070;2022-09-28T03:53:27;96309.88;;;7.18;100.00
70445;BME280;57902;49.638;11.070;2022-09-28T03:55:55;96305.06;;;7.12;100.00
70445;BME280;57902;49.638;11.070;2022-09-28T03:58:27;96303.63;;;7.07;100.00
70445;BME280;57902;49.638;11.070;2022-09-28T04:00:53;96304.34;;;7.09;100.00
70445;BME280;57902;49.638;11.070;2022-09-28T04:03:20;96298.25;;;7.11;100.00
70445;BME280;57902;49.638;11.070;2022-09-28T04:05:48;96294.88;;;7.11;100.00
70445;BME280;57902;49.638;11.070;2022-09-28T04:08:15;96280.56;;;7.07;100.00
70445;BME280;57902;49.638;11.070;2022-09-28T04:10:41;96293.22;;;7.10;100.00
70445;BME280;57902;49.638;11.070;2022-09-28T04:13:08;96291.47;;;7.10;100.00
70445;BME280;57902;49.638;11.070;2022-09-28T04:15:34;96287.13;;;7.12;100.00
70445;BME280;57902;49.638;11.070;2022-09-28T04:18:10;96289.31;;;7.20;100.00
70445;BME280;57902;49.638;11.070;2022-09-28T04:20:36;96283.44;;;7.18;100.00
70445;BME280;57902;49.638;11.070;2022-09-28T04:23:06;96277.53;;;7.16;100.00
70445;BME280;57902;49.638;11.070;2022-09-28T04:25:32;96274.81;;;7.19;100.00
70445;BME280;57902;49.638;11.070;2022-09-28T04:27:59;96284.94;;;7.22;100.00
70445;BME280;57902;49.638;11.070;2022-09-28T04:30:46;96271.97;;;7.25;100.00
70445;BME280;57902;49.638;11.070;2022-09-28T04:33:12;96266.56;;;7.31;100.00
70445;BME280;57902;49.638;11.070;2022-09-28T04:35:39;96261.88;;;7.40;100.00
70445;BME280;57902;49.638;11.070;2022-09-28T04:38:05;96259.38;;;7.38;100.00
70445;BME280;57902;49.638;11.070;2022-09-28T04:40:32;96257.34;;;7.45;100.00
70445;BME280;57902;49.638;11.070;2022-09-28T04:42:58;96248.81;;;7.44;100.00
70445;BME280;57902;49.638;11.070;2022-09-28T04:45:25;96252.16;;;7.46;100.00
70445;BME280;57902;49.638;11.070;2022-09-28T04:47:52;96258.94;;;7.47;100.00
70445;BME280;57902;49.638;11.070;2022-09-28T04:50:19;96245.19;;;7.48;100.00
70445;BME280;57902;49.638;11.070;2022-09-28T04:52:46;96241.59;;;7.52;100.00
70445;BME280;57902;49.638;11.070;2022-09-28T04:55:12;96238.88;;;7.56;100.00
70445;BME280;57902;49.638;11.070;2022-09-28T04:57:39;96237.97;;;7.57;100.00
70445;BME280;57902;49.638;11.070;2022-09-28T05:00:06;96237.00;;;7.59;100.00
70445;BME280;57902;49.638;11.070;2022-09-28T05:02:34;96234.19;;;7.64;100.00
70445;BME280;57902;49.638;11.070;2022-09-28T05:05:00;96229.81;;;7.66;100.00
70445;BME280;57902;49.638;11.070;2022-09-28T05:07:27;96226.41;;;7.65;100.00
70445;BME280;57902;49.638;11.070;2022-09-28T05:09:54;96229.72;;;7.67;100.00
70445;BME280;57902;49.638;11.070;2022-09-28T05:12:21;96229.63;;;7.69;100.00
70445;BME280;57902;49.638;11.070;2022-09-28T05:14:47;96233.13;;;7.68;100.00
70445;BME280;57902;49.638;11.070;2022-09-28T05:17:14;96234.84;;;7.67;100.00
70445;BME280;57902;49.638;11.070;2022-09-28T05:19:40;96240.13;;;7.64;100.00
70445;BME280;57902;49.638;11.070;2022-09-28T05:22:06;96239.00;;;7.70;100.00
70445;BME280;57902;49.638;11.070;2022-09-28T05:24:36;96232.34;;;7.83;100.00
70445;BME280;57902;49.638;11.070;2022-09-28T05:27:03;96229.19;;;7.78;100.00
70445;BME280;57902;49.638;11.070;2022-09-28T05:29:30;96221.69;;;7.74;100.00
70445;BME280;57902;49.638;11.070;2022-09-28T05:31:57;96218.16;;;7.76;100.00
70445;BME280;57902;49.638;11.070;2022-09-28T05:34:26;96214.69;;;7.77;100.00
70445;BME280;57902;49.638;11.070;2022-09-28T05:36:53;96217.75;;;7.84;100.00
70445;BME280;57902;49.638;11.070;2022-09-28T05:39:19;96225.38;;;7.85;100.00
70445;BME280;57902;49.638;11.070;2022-09-28T05:41:46;96232.09;;;7.88;100.00
70445;BME280;57902;49.638;11.070;2022-09-28T05:44:13;96237.91;;;7.92;100.00
70445;BME280;57902;49.638;11.070;2022-09-28T05:46:39;96232.78;;;7.92;100.00
70445;BME280;57902;49.638;11.070;2022-09-28T05:49:05;96227.72;;;7.90;100.00
70445;BME280;57902;49.638;11.070;2022-09-28T05:51:32;96230.88;;;7.95;100.00
70445;BME280;57902;49.638;11.070;2022-09-28T05:53:58;96243.63;;;7.97;100.00
70445;BME280;57902;49.638;11.070;2022-09-28T05:56:31;96238.47;;;7.97;100.00
70445;BME280;57902;49.638;11.070;2022-09-28T05:58:58;96225.66;;;7.97;100.00
70445;BME280;57902;49.638;11.070;2022-09-28T06:01:24;96222.19;;;7.98;100.00
70445;BME280;57902;49.638;11.070;2022-09-28T06:03:51;96220.34;;;8.00;100.00
70445;BME280;57902;49.638;11.070;2022-09-28T06:06:17;96230.63;;;8.00;100.00
70445;BME280;57902;49.638;11.070;2022-09-28T06:08:44;96222.03;;;8.01;100.00
70445;BME280;57902;49.638;11.070;2022-09-28T06:11:11;96225.47;;;8.00;100.00
70445;BME280;57902;49.638;11.070;2022-09-28T06:13:38;96227.00;;;8.04;100.00
70445;BME280;57902;49.638;11.070;2022-09-28T06:16:07;96223.34;;;8.08;100.00
70445;BME280;57902;49.638;11.070;2022-09-28T06:18:33;96227.19;;;8.17;100.00
70445;BME280;57902;49.638;11.070;2022-09-28T06:21:00;96231.25;;;8.21;100.00
70445;BME280;57902;49.638;11.070;2022-09-28T06:23:28;96232.06;;;8.21;100.00
70445;BME280;57902;49.638;11.070;2022-09-28T06:25:54;96225.59;;;8.30;100.00
70445;BME280;57902;49.638;11.070;2022-09-28T06:28:20;96224.53;;;8.34;100.00
70445;BME280;57902;49.638;11.070;2022-09-28T06:30:47;96238.97;;;8.37;100.00
70445;BME280;57902;49.638;11.070;2022-09-28T06:33:15;96243.47;;;8.49;100.00
70445;BME280;57902;49.638;11.070;2022-09-28T06:35:43;96241.53;;;8.53;100.00
70445;BME280;57902;49.638;11.070;2022-09-28T06:38:10;96250.91;;;8.54;100.00
70445;BME280;57902;49.638;11.070;2022-09-28T06:40:36;96254.06;;;8.59;100.00
70445;BME280;57902;49.638;11.070;2022-09-28T06:43:11;96253.97;;;8.61;100.00
70445;BME280;57902;49.638;11.070;2022-09-28T06:45:41;96258.88;;;8.65;100.00
70445;BME280;57902;49.638;11.070;2022-09-28T06:48:09;96263.84;;;8.68;100.00
70445;BME280;57902;49.638;11.070;2022-09-28T06:50:38;96261.50;;;8.80;100.00
70445;BME280;57902;49.638;11.070;2022-09-28T06:53:07;96257.69;;;8.87;100.00
70445;BME280;57902;49.638;11.070;2022-09-28T06:55:38;96256.59;;;8.91;100.00
70445;BME280;57902;49.638;11.070;2022-09-28T06:58:08;96262.75;;;8.88;100.00
70445;BME280;57902;49.638;11.070;2022-09-28T07:00:36;96252.56;;;8.87;100.00
70445;BME280;57902;49.638;11.070;2022-09-28T07:03:09;96268.63;;;8.90;100.00
70445;BME280;57902;49.638;11.070;2022-09-28T07:05:40;96264.28;;;9.07;100.00
70445;BME280;57902;49.638;11.070;2022-09-28T07:08:06;96263.94;;;9.13;100.00
70445;BME280;57902;49.638;11.070;2022-09-28T07:10:33;96268.38;;;9.25;100.00
70445;BME280;57902;49.638;11.070;2022-09-28T07:13:02;96271.88;;;9.24;100.00
70445;BME280;57902;49.638;11.070;2022-09-28T07:15:29;96270.16;;;9.25;100.00
70445;BME280;57902;49.638;11.070;2022-09-28T07:17:57;96278.69;;;9.25;100.00
70445;BME280;57902;49.638;11.070;2022-09-28T07:20:29;96273.19;;;9.32;100.00
70445;BME280;57902;49.638;11.070;2022-09-28T07:22:57;96281.63;;;9.34;100.00
70445;BME280;57902;49.638;11.070;2022-09-28T07:25:38;96294.25;;;9.38;99.67
70445;BME280;57902;49.638;11.070;2022-09-28T07:28:11;96297.81;;;9.36;100.00
70445;BME280;57902;49.638;11.070;2022-09-28T07:30:37;96309.66;;;9.38;100.00
70445;BME280;57902;49.638;11.070;2022-09-28T07:33:06;96313.25;;;9.36;100.00
70445;BME280;57902;49.638;11.070;2022-09-28T07:35:33;96313.78;;;9.41;100.00
70445;BME280;57902;49.638;11.070;2022-09-28T07:38:01;96325.63;;;9.59;100.00
70445;BME280;57902;49.638;11.070;2022-09-28T07:40:29;96313.88;;;9.70;100.00
70445;BME280;57902;49.638;11.070;2022-09-28T07:43:15;96316.59;;;9.97;100.00
70445;BME280;57902;49.638;11.070;2022-09-28T07:45:47;96320.28;;;10.22;100.00
70445;BME280;57902;49.638;11.070;2022-09-28T07:48:14;96326.28;;;10.51;97.80
70445;BME280;57902;49.638;11.070;2022-09-28T07:50:45;96334.91;;;10.79;93.25
70445;BME280;57902;49.638;11.070;2022-09-28T07:53:12;96336.94;;;10.88;93.56
70445;BME280;57902;49.638;11.070;2022-09-28T07:55:39;96344.56;;;10.90;93.57
70445;BME280;57902;49.638;11.070;2022-09-28T07:58:05;96345.94;;;10.95;90.62
70445;BME280;57902;49.638;11.070;2022-09-28T08:00:32;96347.56;;;10.96;91.17
70445;BME280;57902;49.638;11.070;2022-09-28T08:03:00;96338.13;;;11.10;88.41
70445;BME280;57902;49.638;11.070;2022-09-28T08:05:27;96341.69;;;10.94;91.80
70445;BME280;57902;49.638;11.070;2022-09-28T08:07:57;96346.75;;;10.96;90.43
70445;BME280;57902;49.638;11.070;2022-09-28T08:10:25;96341.47;;;11.12;90.87
70445;BME280;57902;49.638;11.070;2022-09-28T08:12:55;96350.34;;;11.35;91.71
70445;BME280;57902;49.638;11.070;2022-09-28T08:15:27;96352.34;;;11.97;90.18
70445;BME280;57902;49.638;11.070;2022-09-28T08:17:54;96359.25;;;12.61;84.63
70445;BME280;57902;49.638;11.070;2022-09-28T08:20:27;96358.59;;;13.57;82.43
70445;BME280;57902;49.638;11.070;2022-09-28T08:23:17;96368.78;;;13.72;79.86
70445;BME280;57902;49.638;11.070;2022-09-28T08:25:47;96367.94;;;14.07;75.51
70445;BME280;57902;49.638;11.070;2022-09-28T08:28:15;96375.19;;;14.48;72.00
70445;BME280;57902;49.638;11.070;2022-09-28T08:30:45;96381.75;;;14.30;74.99
70445;BME280;57902;49.638;11.070;2022-09-28T08:33:13;96388.66;;;14.76;70.48
70445;BME280;57902;49.638;11.070;2022-09-28T08:35:40;96387.59;;;14.79;69.02
70445;BME280;57902;49.638;11.070;2022-09-28T08:38:07;96386.19;;;14.75;67.65
70445;BME280;57902;49.638;11.070;2022-09-28T08:41:00;96397.63;;;14.72;67.79
70445;BME280;57902;49.638;11.070;2022-09-28T08:46:41;96392.41;;;14.03;67.86
70445;BME280;57902;49.638;11.070;2022-09-28T08:49:27;96399.34;;;13.67;69.43
70445;BME280;57902;49.638;11.070;2022-09-28T08:54:36;96398.97;;;14.31;66.95
70445;BME280;57902;49.638;11.070;2022-09-28T08:57:14;96415.31;;;15.01;65.45
70445;BME280;57902;49.638;11.070;2022-09-28T08:59:48;96407.22;;;15.49;65.47
70445;BME280;57902;49.638;11.070;2022-09-28T09:02:43;96413.50;;;15.79;62.81
70445;BME280;57902;49.638;11.070;2022-09-28T09:05:15;96411.53;;;16.04;59.03
70445;BME280;57902;49.638;11.070;2022-09-28T09:15:52;96432.50;;;14.21;62.13
70445;BME280;57902;49.638;11.070;2022-09-28T09:18:42;96441.94;;;13.62;63.93
70445;BME280;57902;49.638;11.070;2022-09-28T09:21:37;96445.69;;;13.08;65.91
70445;BME280;57902;49.638;11.070;2022-09-28T09:24:25;96448.38;;;12.68;67.89
70445;BME280;57902;49.638;11.070;2022-09-28T09:27:05;96455.22;;;12.31;67.22
70445;BME280;57902;49.638;11.070;2022-09-28T09:29:45;96458.88;;;12.14;69.43
70445;BME280;57902;49.638;11.070;2022-09-28T09:34:57;96465.34;;;12.47;69.36
70445;BME280;57902;49.638;11.070;2022-09-28T09:37:34;96464.44;;;12.73;67.05
70445;BME280;57902;49.638;11.070;2022-09-28T09:40:31;96467.00;;;12.99;67.08
70445;BME280;57902;49.638;11.070;2022-09-28T09:51:21;96472.75;;;13.41;62.86
70445;BME280;57902;49.638;11.070;2022-09-28T09:53:56;96485.28;;;13.22;62.12
70445;BME280;57902;49.638;11.070;2022-09-28T09:56:44;96478.66;;;13.18;64.94
70445;BME280;57902;49.638;11.070;2022-09-28T09:59:18;96482.88;;;13.44;64.46
70445;BME280;57902;49.638;11.070;2022-09-28T10:01:47;96480.13;;;13.72;63.92
70445;BME280;57902;49.638;11.070;2022-09-28T10:04:24;96478.25;;;13.98;63.67
70445;BME280;57902;49.638;11.070;2022-09-28T10:06:58;96483.50;;;14.21;57.31
70445;BME280;57902;49.638;11.070;2022-09-28T10:09:41;96486.63;;;14.02;59.08
70445;BME280;57902;49.638;11.070;2022-09-28T10:12:17;96485.13;;;13.86;58.34
70445;BME280;57902;49.638;11.070;2022-09-28T10:14:44;96488.53;;;13.87;57.48
70445;BME280;57902;49.638;11.070;2022-09-28T10:17:16;96487.34;;;13.79;58.87
70445;BME280;57902;49.638;11.070;2022-09-28T10:19:45;96489.00;;;13.80;56.60
70445;BME280;57902;49.638;11.070;2022-09-28T10:22:21;96492.63;;;13.78;57.73
70445;BME280;57902;49.638;11.070;2022-09-28T10:24:50;96495.63;;;13.85;57.77
70445;BME280;57902;49.638;11.070;2022-09-28T10:27:27;96495.97;;;13.91;58.27
70445;BME280;57902;49.638;11.070;2022-09-28T10:29:58;96492.34;;;13.94;57.03
70445;BME280;57902;49.638;11.070;2022-09-28T10:32:36;96498.94;;;13.74;57.76
70445;BME280;57902;49.638;11.070;2022-09-28T10:37:52;96507.34;;;13.27;60.28
70445;BME280;57902;49.638;11.070;2022-09-28T10:40:48;96508.16;;;13.41;58.04
70445;BME280;57902;49.638;11.070;2022-09-28T10:43:26;96513.88;;;13.20;58.91
70445;BME280;57902;49.638;11.070;2022-09-28T10:46:07;96521.63;;;13.07;58.60
70445;BME280;57902;49.638;11.070;2022-09-28T10:48:50;96514.06;;;12.91;58.38
70445;BME280;57902;49.638;11.070;2022-09-28T10:51:17;96517.59;;;12.90;58.15
70445;BME280;57902;49.638;11.070;2022-09-28T10:53:59;96520.19;;;12.77;58.79
70445;BME280;57902;49.638;11.070;2022-09-28T10:56:28;96514.28;;;12.75;57.95
70445;BME280;57902;49.638;11.070;2022-09-28T10:58:55;96515.63;;;12.81;57.94
70445;BME280;57902;49.638;11.070;2022-09-28T11:01:25;96509.31;;;12.98;56.32
70445;BME280;57902;49.638;11.070;2022-09-28T11:03:58;96501.56;;;12.98;58.85
70445;BME280;57902;49.638;11.070;2022-09-28T11:06:31;96501.53;;;13.24;58.42
70445;BME280;57902;49.638;11.070;2022-09-28T11:09:03;96499.19;;;13.58;57.18
70445;BME280;57902;49.638;11.070;2022-09-28T11:11:39;96498.94;;;13.74;54.90
70445;BME280;57902;49.638;11.070;2022-09-28T11:14:22;96502.31;;;13.87;56.87
70445;BME280;57902;49.638;11.070;2022-09-28T11:17:16;96497.88;;;13.89;57.24
70445;BME280;57902;49.638;11.070;2022-09-28T11:19:44;96496.38;;;13.98;54.74
70445;BME280;57902;49.638;11.070;2022-09-28T11:28:01;96506.38;;;13.78;55.55
70445;BME280;57902;49.638;11.070;2022-09-28T11:30:31;96501.31;;;13.53;57.59
70445;BME280;57902;49.638;11.070;2022-09-28T11:33:10;96500.06;;;13.45;58.62
70445;BME280;57902;49.638;11.070;2022-09-28T11:42:00;96496.78;;;12.92;58.23
70445;BME280;57902;49.638;11.070;2022-09-28T11:47:32;96505.78;;;12.60;59.36
70445;BME280;57902;49.638;11.070;2022-09-28T11:53:09;96508.25;;;12.62;60.50
70445;BME280;57902;49.638;11.070;2022-09-28T11:58:41;96502.38;;;12.86;57.40
70445;BME280;57902;49.638;11.070;2022-09-28T12:01:33;96505.50;;;12.91;57.63
70445;BME280;57902;49.638;11.070;2022-09-28T12:04:06;96506.31;;;13.04;56.73
70445;BME280;57902;49.638;11.070;2022-09-28T12:06:43;96507.94;;;13.18;53.97
70445;BME280;57902;49.638;11.070;2022-09-28T12:09:17;96509.72;;;13.18;54.52
70445;BME280;57902;49.638;11.070;2022-09-28T12:11:51;96501.94;;;13.30;53.56
70445;BME280;57902;49.638;11.070;2022-09-28T12:14:28;96505.44;;;13.55;52.37
70445;BME280;57902;49.638;11.070;2022-09-28T12:17:04;96506.25;;;13.56;52.15
70445;BME280;57902;49.638;11.070;2022-09-28T12:19:49;96508.44;;;13.49;53.71
70445;BME280;57902;49.638;11.070;2022-09-28T12:22:30;96507.28;;;13.66;53.24
70445;BME280;57902;49.638;11.070;2022-09-28T12:24:59;96514.00;;;13.69;53.08
70445;BME280;57902;49.638;11.070;2022-09-28T12:27:49;96515.00;;;13.79;54.17
70445;BME280;57902;49.638;11.070;2022-09-28T12:30:19;96515.78;;;13.92;53.01
70445;BME280;57902;49.638;11.070;2022-09-28T12:33:13;96515.72;;;13.81;53.85
70445;BME280;57902;49.638;11.070;2022-09-28T12:36:08;96518.22;;;13.70;53.16
70445;BME280;57902;49.638;11.070;2022-09-28T12:39:02;96515.91;;;13.54;54.36
70445;BME280;57902;49.638;11.070;2022-09-28T12:42:01;96520.56;;;13.48;55.42
70445;BME280;57902;49.638;11.070;2022-09-28T12:50:26;96520.16;;;13.42;56.42
70445;BME280;57902;49.638;11.070;2022-09-28T12:56:02;96522.00;;;13.65;53.46
70445;BME280;57902;49.638;11.070;2022-09-28T13:01:19;96527.75;;;13.69;53.53
70445;BME280;57902;49.638;11.070;2022-09-28T13:03:59;96523.09;;;13.74;53.88
70445;BME280;57902;49.638;11.070;2022-09-28T13:06:36;96528.78;;;13.79;54.39
70445;BME280;57902;49.638;11.070;2022-09-28T13:09:24;96524.03;;;13.73;55.18
70445;BME280;57902;49.638;11.070;2022-09-28T13:11:59;96522.16;;;13.75;55.24
70445;BME280;57902;49.638;11.070;2022-09-28T13:15:03;96519.03;;;13.83;54.14
70445;BME280;57902;49.638;11.070;2022-09-28T13:17:58;96517.81;;;13.76;55.64
70445;BME280;57902;49.638;11.070;2022-09-28T13:20:49;96522.88;;;13.77;54.83
70445;BME280;57902;49.638;11.070;2022-09-28T13:23:47;96524.41;;;13.80;54.64
70445;BME280;57902;49.638;11.070;2022-09-28T13:26:29;96520.69;;;13.71;53.37
70445;BME280;57902;49.638;11.070;2022-09-28T13:29:00;96520.66;;;13.60;55.02
70445;BME280;57902;49.638;11.070;2022-09-28T13:31:30;96519.53;;;13.51;56.18
70445;BME280;57902;49.638;11.070;2022-09-28T13:34:02;96517.66;;;13.53;56.14
70445;BME280;57902;49.638;11.070;2022-09-28T13:38:57;96520.13;;;13.55;56.61
70445;BME280;57902;49.638;11.070;2022-09-28T13:41:29;96518.84;;;13.73;54.84
70445;BME280;57902;49.638;11.070;2022-09-28T13:46:55;96518.97;;;13.72;55.33
70445;BME280;57902;49.638;11.070;2022-09-28T14:10:20;96525.75;;;13.36;53.03
70445;BME280;57902;49.638;11.070;2022-09-28T14:12:51;96531.53;;;13.26;52.43
70445;BME280;57902;49.638;11.070;2022-09-28T14:20:24;96532.56;;;13.24;53.17
70445;BME280;57902;49.638;11.070;2022-09-28T14:28:55;96527.13;;;13.16;55.54
70445;BME280;57902;49.638;11.070;2022-09-28T14:31:32;96531.13;;;13.20;55.95
70445;BME280;57902;49.638;11.070;2022-09-28T14:34:00;96532.56;;;13.24;55.07
70445;BME280;57902;49.638;11.070;2022-09-28T14:36:37;96539.09;;;13.17;55.19
70445;BME280;57902;49.638;11.070;2022-09-28T14:39:30;96538.38;;;13.15;54.84
70445;BME280;57902;49.638;11.070;2022-09-28T14:42:19;96538.91;;;13.07;55.56
70445;BME280;57902;49.638;11.070;2022-09-28T14:47:36;96554.19;;;12.84;56.23
70445;BME280;57902;49.638;11.070;2022-09-28T14:50:25;96552.25;;;12.75;57.25
70445;BME280;57902;49.638;11.070;2022-09-28T14:53:09;96556.59;;;12.74;58.32
70445;BME280;57902;49.638;11.070;2022-09-28T14:55:46;96560.81;;;12.75;58.17
70445;BME280;57902;49.638;11.070;2022-09-28T14:58:21;96554.00;;;12.74;57.61
70445;BME280;57902;49.638;11.070;2022-09-28T15:00:54;96556.16;;;12.68;57.85
70445;BME280;57902;49.638;11.070;2022-09-28T15:03:24;96562.69;;;12.73;57.69
70445;BME280;57902;49.638;11.070;2022-09-28T15:05:52;96563.91;;;12.68;59.36
70445;BME280;57902;49.638;11.070;2022-09-28T15:08:19;96559.06;;;12.76;58.49
70445;BME280;57902;49.638;11.070;2022-09-28T15:10:48;96566.94;;;13.00;56.21
70445;BME280;57902;49.638;11.070;2022-09-28T15:13:24;96571.09;;;13.03;55.67
70445;BME280;57902;49.638;11.070;2022-09-28T15:16:07;96569.81;;;12.83;56.56
70445;BME280;57902;49.638;11.070;2022-09-28T15:21:35;96578.81;;;12.77;57.05